Amistad, NM (88410)

5:43 AM MDT on August 31, 2014 (GMT -0600)
3B Farms | Change Station
CLOSE
Current Station
Personal Weather Station
Location: Dalhart, TX
Elevation: 4386 ft
Nearby Weather Stations

Elev 4386 ft 36.13 °N, 102.93 °W | Updated 11 minutes ago

Clear
Clear
63.9 °F
Feels Like 63.9 °F
N
7.0
Wind Variable Wind from SW

Today
High -- | Low -- °F
--% Chance of Precip.
Yesterday
High -- | Low -- °F
Precip. -- in
6:23 AM 7:21 PM
Waxing Crescent, 30% visible
Pressure 29.77 in
Visibility 10.0 miles
Clouds Clear
Dew Point 50 °F
Humidity 62%
Rainfall 0.00 in
Snow Depth Not available.
UV 0 out of 12
Pollen 10.40 out of 12
Air Quality Not available.
Flu Activity Not available.
METAR KDHT 311053Z AUTO 19009KT 10SM CLR 19/11 A2996 RMK AO2 SLP081 T01890111

More Conditions Fewer Conditions

Pressure 29.77 in
Visibility 10.0 miles
Clouds Clear
Dew Point 50 °F
Humidity 62%
Rainfall 0.00 in
Snow Depth Not available.
UV 0 out of 12
Pollen 10.40 out of 12
Air Quality Not available.
Flu Activity Not available.
METAR KDHT 311053Z AUTO 19009KT 10SM CLR 19/11 A2996 RMK AO2 SLP081 T01890111

More Conditions Fewer Conditions

10-Day Weather Forecast

Almanac

Astronomy

Aug. 31, 2014 Rise Set
Actual Time 6:23 AM MDT 7:21 PM MDT
Civil Twilight 5:57 AM MDT 7:47 PM MDT
Nautical Twilight 5:26 AM MDT 8:18 PM MDT
Astronomical Twilight 4:54 AM MDT 8:50 PM MDT
Moon 12:00 PM MDT 10:50 PM MDT
Length of Visible Light 13h 50m
Length of Day
12h 57m
Tomorrow will be 2m 11s shorter.
Waxing Crescent, 30% of the Moon is Illuminated
Today
Waxing Crescent
Sep 2
First Quarter
Sep 8
Full
Sep 15
Last Quarter
Sep 24
New

Today's Extremes

State Highs State Lows

Community

WunderPhotos

Upload Photos

1,748,848 photos uploaded!

Nearby

Snow Depth

Station Depth Elevation
Tolby 0 in 10180 ft
Red River Pass #2 0 in 9850 ft
Wesner Springs 2 in 11120 ft
Gallegos Peak 0 in 9800 ft
North Costilla 1 in 10600 ft

Earthquake Activity

City Distance Mag. Time & Date
Trinidad, Colorado 127 miles 2.7 4:20 AM MDT
2014-08-31
Minimum magnitude displayed is 2.5.

Coastal Water Temperatures

Place Temperature
No Stations Reporting

Nearby Weather Stations